sensor_id;sensor_type;location;lat;lon;timestamp;P1;durP1;ratioP1;P2;durP2;ratioP2
18100;SDS011;9177;49.156;8.142;2023-07-31T00:00:41;1.73;;;1.02;;
18100;SDS011;9177;49.156;8.142;2023-07-31T00:03:08;2.05;;;1.08;;
18100;SDS011;9177;49.156;8.142;2023-07-31T00:05:35;1.50;;;1.10;;
18100;SDS011;9177;49.156;8.142;2023-07-31T00:08:04;1.75;;;0.98;;
18100;SDS011;9177;49.156;8.142;2023-07-31T00:10:31;1.40;;;1.23;;
18100;SDS011;9177;49.156;8.142;2023-07-31T00:12:58;1.77;;;1.10;;
18100;SDS011;9177;49.156;8.142;2023-07-31T00:15:26;2.75;;;1.17;;
18100;SDS011;9177;49.156;8.142;2023-07-31T00:17:52;2.35;;;1.13;;
18100;SDS011;9177;49.156;8.142;2023-07-31T00:20:19;2.08;;;1.30;;
18100;SDS011;9177;49.156;8.142;2023-07-31T00:22:47;1.70;;;1.02;;
18100;SDS011;9177;49.156;8.142;2023-07-31T00:25:15;1.77;;;1.15;;
18100;SDS011;9177;49.156;8.142;2023-07-31T00:27:42;2.05;;;1.02;;
18100;SDS011;9177;49.156;8.142;2023-07-31T00:30:11;1.85;;;1.10;;
18100;SDS011;9177;49.156;8.142;2023-07-31T00:32:38;1.30;;;0.98;;
18100;SDS011;9177;49.156;8.142;2023-07-31T00:35:05;2.45;;;1.20;;
18100;SDS011;9177;49.156;8.142;2023-07-31T00:37:32;1.80;;;1.30;;
18100;SDS011;9177;49.156;8.142;2023-07-31T00:39:59;1.25;;;0.93;;
18100;SDS011;9177;49.156;8.142;2023-07-31T00:42:30;1.27;;;1.02;;
18100;SDS011;9177;49.156;8.142;2023-07-31T00:44:57;1.48;;;0.95;;
18100;SDS011;9177;49.156;8.142;2023-07-31T00:47:26;2.08;;;1.00;;
18100;SDS011;9177;49.156;8.142;2023-07-31T00:49:53;1.67;;;1.25;;
18100;SDS011;9177;49.156;8.142;2023-07-31T00:52:21;1.75;;;1.20;;
18100;SDS011;9177;49.156;8.142;2023-07-31T00:54:47;1.45;;;1.02;;
18100;SDS011;9177;49.156;8.142;2023-07-31T00:57:15;2.83;;;1.40;;
18100;SDS011;9177;49.156;8.142;2023-07-31T00:59:43;1.65;;;1.08;;
18100;SDS011;9177;49.156;8.142;2023-07-31T01:02:12;1.42;;;0.90;;
18100;SDS011;9177;49.156;8.142;2023-07-31T01:04:41;1.15;;;1.05;;
18100;SDS011;9177;49.156;8.142;2023-07-31T01:07:11;1.88;;;0.98;;
18100;SDS011;9177;49.156;8.142;2023-07-31T01:09:41;2.03;;;1.10;;
18100;SDS011;9177;49.156;8.142;2023-07-31T01:12:12;2.40;;;1.20;;
18100;SDS011;9177;49.156;8.142;2023-07-31T01:14:51;1.20;;;0.98;;
18100;SDS011;9177;49.156;8.142;2023-07-31T01:17:28;2.40;;;1.33;;
18100;SDS011;9177;49.156;8.142;2023-07-31T01:19:55;2.10;;;1.15;;
18100;SDS011;9177;49.156;8.142;2023-07-31T01:22:28;1.45;;;1.00;;
18100;SDS011;9177;49.156;8.142;2023-07-31T01:25:07;1.10;;;1.00;;
18100;SDS011;9177;49.156;8.142;2023-07-31T01:27:50;1.98;;;1.20;;
18100;SDS011;9177;49.156;8.142;2023-07-31T01:30:25;1.58;;;1.10;;
18100;SDS011;9177;49.156;8.142;2023-07-31T01:32:58;1.65;;;0.93;;
18100;SDS011;9177;49.156;8.142;2023-07-31T01:35:32;1.25;;;0.98;;
18100;SDS011;9177;49.156;8.142;2023-07-31T01:37:59;2.00;;;0.98;;
18100;SDS011;9177;49.156;8.142;2023-07-31T01:40:25;1.23;;;1.10;;
18100;SDS011;9177;49.156;8.142;2023-07-31T01:42:54;0.82;;;0.70;;
18100;SDS011;9177;49.156;8.142;2023-07-31T01:45:23;1.73;;;1.10;;
18100;SDS011;9177;49.156;8.142;2023-07-31T01:47:54;1.83;;;1.20;;
18100;SDS011;9177;49.156;8.142;2023-07-31T01:50:22;2.72;;;1.23;;
18100;SDS011;9177;49.156;8.142;2023-07-31T01:52:49;1.95;;;1.00;;
18100;SDS011;9177;49.156;8.142;2023-07-31T01:55:16;1.98;;;1.20;;
18100;SDS011;9177;49.156;8.142;2023-07-31T01:57:43;1.77;;;1.20;;
18100;SDS011;9177;49.156;8.142;2023-07-31T02:00:11;1.65;;;1.08;;
18100;SDS011;9177;49.156;8.142;2023-07-31T02:02:38;2.85;;;0.90;;
18100;SDS011;9177;49.156;8.142;2023-07-31T02:05:06;1.48;;;1.10;;
18100;SDS011;9177;49.156;8.142;2023-07-31T02:07:33;1.35;;;1.00;;
18100;SDS011;9177;49.156;8.142;2023-07-31T02:09:59;1.67;;;0.98;;
18100;SDS011;9177;49.156;8.142;2023-07-31T02:12:27;1.92;;;1.15;;
18100;SDS011;9177;49.156;8.142;2023-07-31T02:14:55;1.88;;;1.15;;
18100;SDS011;9177;49.156;8.142;2023-07-31T02:17:23;1.98;;;1.10;;
18100;SDS011;9177;49.156;8.142;2023-07-31T02:19:50;0.90;;;0.82;;
18100;SDS011;9177;49.156;8.142;2023-07-31T02:22:17;1.15;;;1.00;;
18100;SDS011;9177;49.156;8.142;2023-07-31T02:24:44;1.48;;;1.10;;
18100;SDS011;9177;49.156;8.142;2023-07-31T02:27:11;1.60;;;1.20;;
18100;SDS011;9177;49.156;8.142;2023-07-31T02:29:38;1.55;;;0.90;;
18100;SDS011;9177;49.156;8.142;2023-07-31T02:32:04;1.35;;;0.90;;
18100;SDS011;9177;49.156;8.142;2023-07-31T02:34:32;1.20;;;1.02;;
18100;SDS011;9177;49.156;8.142;2023-07-31T02:36:59;1.25;;;1.05;;
18100;SDS011;9177;49.156;8.142;2023-07-31T02:39:26;1.85;;;1.10;;
18100;SDS011;9177;49.156;8.142;2023-07-31T02:41:53;1.30;;;0.90;;
18100;SDS011;9177;49.156;8.142;2023-07-31T02:44:20;1.30;;;1.10;;
18100;SDS011;9177;49.156;8.142;2023-07-31T02:46:47;1.55;;;1.10;;
18100;SDS011;9177;49.156;8.142;2023-07-31T02:49:14;2.05;;;1.40;;
18100;SDS011;9177;49.156;8.142;2023-07-31T02:51:42;1.52;;;0.90;;
18100;SDS011;9177;49.156;8.142;2023-07-31T02:54:09;1.52;;;0.93;;
18100;SDS011;9177;49.156;8.142;2023-07-31T02:56:36;0.90;;;0.80;;
18100;SDS011;9177;49.156;8.142;2023-07-31T02:59:03;1.92;;;1.20;;
18100;SDS011;9177;49.156;8.142;2023-07-31T03:01:29;1.30;;;1.00;;
18100;SDS011;9177;49.156;8.142;2023-07-31T03:03:57;3.10;;;1.20;;
18100;SDS011;9177;49.156;8.142;2023-07-31T03:06:24;1.38;;;1.05;;
18100;SDS011;9177;49.156;8.142;2023-07-31T03:08:53;1.92;;;1.10;;
18100;SDS011;9177;49.156;8.142;2023-07-31T03:11:20;1.48;;;1.10;;
18100;SDS011;9177;49.156;8.142;2023-07-31T03:13:47;2.20;;;1.40;;
18100;SDS011;9177;49.156;8.142;2023-07-31T03:16:14;1.52;;;1.20;;
18100;SDS011;9177;49.156;8.142;2023-07-31T03:18:41;1.00;;;0.90;;
18100;SDS011;9177;49.156;8.142;2023-07-31T03:21:08;2.05;;;1.10;;
18100;SDS011;9177;49.156;8.142;2023-07-31T03:23:34;1.42;;;1.20;;
18100;SDS011;9177;49.156;8.142;2023-07-31T03:26:05;2.85;;;0.93;;
18100;SDS011;9177;49.156;8.142;2023-07-31T03:28:33;2.60;;;1.00;;
18100;SDS011;9177;49.156;8.142;2023-07-31T03:30:59;1.15;;;0.90;;
18100;SDS011;9177;49.156;8.142;2023-07-31T03:33:26;1.20;;;1.10;;
18100;SDS011;9177;49.156;8.142;2023-07-31T03:35:53;2.13;;;1.00;;
18100;SDS011;9177;49.156;8.142;2023-07-31T03:38:20;1.83;;;1.27;;
18100;SDS011;9177;49.156;8.142;2023-07-31T03:40:47;1.10;;;1.00;;
18100;SDS011;9177;49.156;8.142;2023-07-31T03:43:16;1.85;;;1.20;;
18100;SDS011;9177;49.156;8.142;2023-07-31T03:45:42;1.88;;;1.10;;
18100;SDS011;9177;49.156;8.142;2023-07-31T03:48:10;1.70;;;0.90;;
18100;SDS011;9177;49.156;8.142;2023-07-31T03:50:36;2.72;;;1.27;;
18100;SDS011;9177;49.156;8.142;2023-07-31T03:53:03;1.20;;;1.00;;
18100;SDS011;9177;49.156;8.142;2023-07-31T03:55:31;2.30;;;1.25;;
18100;SDS011;9177;49.156;8.142;2023-07-31T03:57:57;2.45;;;1.20;;
18100;SDS011;9177;49.156;8.142;2023-07-31T04:00:26;1.40;;;1.10;;
18100;SDS011;9177;49.156;8.142;2023-07-31T04:02:54;1.67;;;1.40;;
18100;SDS011;9177;49.156;8.142;2023-07-31T04:05:20;1.50;;;1.05;;
18100;SDS011;9177;49.156;8.142;2023-07-31T04:07:47;2.65;;;1.33;;
18100;SDS011;9177;49.156;8.142;2023-07-31T04:10:14;2.05;;;1.10;;
18100;SDS011;9177;49.156;8.142;2023-07-31T04:12:41;1.50;;;1.02;;
18100;SDS011;9177;49.156;8.142;2023-07-31T04:15:11;1.88;;;1.05;;
18100;SDS011;9177;49.156;8.142;2023-07-31T04:17:39;1.52;;;1.23;;
18100;SDS011;9177;49.156;8.142;2023-07-31T04:20:06;1.95;;;1.10;;
18100;SDS011;9177;49.156;8.142;2023-07-31T04:22:34;1.70;;;1.23;;
18100;SDS011;9177;49.156;8.142;2023-07-31T04:25:01;2.05;;;1.10;;
18100;SDS011;9177;49.156;8.142;2023-07-31T04:27:28;2.45;;;1.08;;
18100;SDS011;9177;49.156;8.142;2023-07-31T04:29:57;2.90;;;1.40;;
18100;SDS011;9177;49.156;8.142;2023-07-31T04:32:24;2.85;;;1.10;;
18100;SDS011;9177;49.156;8.142;2023-07-31T04:34:52;1.25;;;1.00;;
18100;SDS011;9177;49.156;8.142;2023-07-31T04:37:19;1.83;;;1.23;;
18100;SDS011;9177;49.156;8.142;2023-07-31T04:39:46;1.65;;;1.00;;
18100;SDS011;9177;49.156;8.142;2023-07-31T04:42:12;1.30;;;1.20;;
18100;SDS011;9177;49.156;8.142;2023-07-31T04:44:39;1.35;;;1.00;;
18100;SDS011;9177;49.156;8.142;2023-07-31T04:47:06;1.33;;;1.08;;
18100;SDS011;9177;49.156;8.142;2023-07-31T04:49:33;1.40;;;1.30;;
18100;SDS011;9177;49.156;8.142;2023-07-31T04:52:01;1.48;;;1.20;;
18100;SDS011;9177;49.156;8.142;2023-07-31T04:54:28;2.58;;;1.27;;
18100;SDS011;9177;49.156;8.142;2023-07-31T04:56:55;1.38;;;0.98;;
18100;SDS011;9177;49.156;8.142;2023-07-31T04:59:22;1.20;;;0.98;;
18100;SDS011;9177;49.156;8.142;2023-07-31T05:01:49;1.80;;;1.13;;
18100;SDS011;9177;49.156;8.142;2023-07-31T05:04:16;1.58;;;1.10;;
18100;SDS011;9177;49.156;8.142;2023-07-31T05:06:43;1.15;;;0.95;;
18100;SDS011;9177;49.156;8.142;2023-07-31T05:09:11;1.73;;;1.30;;
18100;SDS011;9177;49.156;8.142;2023-07-31T05:11:38;2.35;;;1.27;;
18100;SDS011;9177;49.156;8.142;2023-07-31T05:14:05;2.72;;;0.98;;
18100;SDS011;9177;49.156;8.142;2023-07-31T05:16:35;0.98;;;0.90;;
18100;SDS011;9177;49.156;8.142;2023-07-31T05:19:02;1.73;;;1.15;;
18100;SDS011;9177;49.156;8.142;2023-07-31T05:21:29;1.05;;;0.95;;
18100;SDS011;9177;49.156;8.142;2023-07-31T05:23:56;1.63;;;1.10;;
18100;SDS011;9177;49.156;8.142;2023-07-31T05:26:24;1.60;;;1.13;;
18100;SDS011;9177;49.156;8.142;2023-07-31T05:28:51;2.13;;;1.40;;
18100;SDS011;9177;49.156;8.142;2023-07-31T05:31:18;1.95;;;1.17;;
18100;SDS011;9177;49.156;8.142;2023-07-31T05:33:45;1.50;;;1.17;;
18100;SDS011;9177;49.156;8.142;2023-07-31T05:36:12;1.95;;;1.10;;
18100;SDS011;9177;49.156;8.142;2023-07-31T05:38:40;1.70;;;1.10;;
18100;SDS011;9177;49.156;8.142;2023-07-31T05:41:07;2.00;;;1.20;;
18100;SDS011;9177;49.156;8.142;2023-07-31T05:43:35;1.02;;;0.93;;
18100;SDS011;9177;49.156;8.142;2023-07-31T05:46:10;2.55;;;1.30;;
18100;SDS011;9177;49.156;8.142;2023-07-31T05:48:40;1.17;;;1.08;;
18100;SDS011;9177;49.156;8.142;2023-07-31T05:51:07;1.02;;;0.93;;
18100;SDS011;9177;49.156;8.142;2023-07-31T05:53:34;1.75;;;1.10;;
18100;SDS011;9177;49.156;8.142;2023-07-31T05:56:03;2.53;;;1.20;;
18100;SDS011;9177;49.156;8.142;2023-07-31T05:58:30;1.75;;;1.00;;
18100;SDS011;9177;49.156;8.142;2023-07-31T06:00:58;1.83;;;1.38;;
18100;SDS011;9177;49.156;8.142;2023-07-31T06:03:25;1.58;;;1.00;;
18100;SDS011;9177;49.156;8.142;2023-07-31T06:05:52;2.47;;;1.27;;
18100;SDS011;9177;49.156;8.142;2023-07-31T06:08:19;1.40;;;0.93;;
18100;SDS011;9177;49.156;8.142;2023-07-31T06:10:46;1.83;;;1.20;;
18100;SDS011;9177;49.156;8.142;2023-07-31T06:13:13;2.40;;;1.17;;
18100;SDS011;9177;49.156;8.142;2023-07-31T06:15:40;1.40;;;1.05;;
18100;SDS011;9177;49.156;8.142;2023-07-31T06:18:08;2.10;;;1.08;;
18100;SDS011;9177;49.156;8.142;2023-07-31T06:20:35;1.92;;;1.15;;
18100;SDS011;9177;49.156;8.142;2023-07-31T06:23:03;1.60;;;1.00;;
18100;SDS011;9177;49.156;8.142;2023-07-31T06:25:30;1.13;;;0.90;;
18100;SDS011;9177;49.156;8.142;2023-07-31T06:28:00;1.50;;;1.00;;
18100;SDS011;9177;49.156;8.142;2023-07-31T06:30:27;1.13;;;1.00;;
18100;SDS011;9177;49.156;8.142;2023-07-31T06:32:57;3.50;;;1.02;;
18100;SDS011;9177;49.156;8.142;2023-07-31T06:35:25;2.03;;;1.27;;
18100;SDS011;9177;49.156;8.142;2023-07-31T06:37:52;1.42;;;1.10;;
18100;SDS011;9177;49.156;8.142;2023-07-31T06:40:19;1.75;;;1.10;;
18100;SDS011;9177;49.156;8.142;2023-07-31T06:42:46;3.50;;;1.10;;
18100;SDS011;9177;49.156;8.142;2023-07-31T06:45:13;3.30;;;1.08;;
18100;SDS011;9177;49.156;8.142;2023-07-31T06:47:40;2.65;;;1.10;;
18100;SDS011;9177;49.156;8.142;2023-07-31T06:50:07;1.50;;;1.20;;
18100;SDS011;9177;49.156;8.142;2023-07-31T06:52:36;3.13;;;1.20;;
18100;SDS011;9177;49.156;8.142;2023-07-31T06:55:03;1.50;;;1.00;;
18100;SDS011;9177;49.156;8.142;2023-07-31T06:57:43;3.22;;;1.27;;
18100;SDS011;9177;49.156;8.142;2023-07-31T07:00:10;2.70;;;1.25;;
18100;SDS011;9177;49.156;8.142;2023-07-31T07:02:38;7.15;;;1.33;;
18100;SDS011;9177;49.156;8.142;2023-07-31T07:05:06;2.80;;;1.60;;
18100;SDS011;9177;49.156;8.142;2023-07-31T07:07:33;3.25;;;1.20;;
18100;SDS011;9177;49.156;8.142;2023-07-31T07:10:02;2.65;;;1.02;;
18100;SDS011;9177;49.156;8.142;2023-07-31T07:12:31;1.70;;;1.48;;
18100;SDS011;9177;49.156;8.142;2023-07-31T07:14:58;4.10;;;1.40;;
18100;SDS011;9177;49.156;8.142;2023-07-31T07:17:25;3.33;;;1.30;;
18100;SDS011;9177;49.156;8.142;2023-07-31T07:19:54;3.45;;;1.33;;
18100;SDS011;9177;49.156;8.142;2023-07-31T07:22:21;2.97;;;1.33;;
18100;SDS011;9177;49.156;8.142;2023-07-31T07:24:53;3.33;;;1.48;;
18100;SDS011;9177;49.156;8.142;2023-07-31T07:27:21;2.67;;;1.30;;
18100;SDS011;9177;49.156;8.142;2023-07-31T07:29:50;3.47;;;1.45;;
18100;SDS011;9177;49.156;8.142;2023-07-31T07:32:18;3.90;;;1.40;;
18100;SDS011;9177;49.156;8.142;2023-07-31T07:34:45;3.42;;;1.63;;
18100;SDS011;9177;49.156;8.142;2023-07-31T07:37:13;3.70;;;1.50;;
18100;SDS011;9177;49.156;8.142;2023-07-31T07:39:45;5.40;;;1.50;;
18100;SDS011;9177;49.156;8.142;2023-07-31T07:42:12;3.38;;;1.70;;
18100;SDS011;9177;49.156;8.142;2023-07-31T07:44:40;3.80;;;1.52;;
18100;SDS011;9177;49.156;8.142;2023-07-31T07:47:08;4.88;;;1.58;;
18100;SDS011;9177;49.156;8.142;2023-07-31T07:49:35;5.28;;;1.67;;
18100;SDS011;9177;49.156;8.142;2023-07-31T07:52:02;4.10;;;1.50;;
18100;SDS011;9177;49.156;8.142;2023-07-31T07:54:30;5.18;;;1.50;;
18100;SDS011;9177;49.156;8.142;2023-07-31T07:56:57;6.00;;;1.70;;
18100;SDS011;9177;49.156;8.142;2023-07-31T07:59:24;5.47;;;1.60;;
18100;SDS011;9177;49.156;8.142;2023-07-31T08:01:53;4.45;;;1.67;;
18100;SDS011;9177;49.156;8.142;2023-07-31T08:04:20;5.15;;;1.75;;
18100;SDS011;9177;49.156;8.142;2023-07-31T08:06:47;3.22;;;1.33;;
18100;SDS011;9177;49.156;8.142;2023-07-31T08:09:14;7.65;;;1.58;;
18100;SDS011;9177;49.156;8.142;2023-07-31T08:11:42;7.97;;;1.58;;
18100;SDS011;9177;49.156;8.142;2023-07-31T08:14:27;5.07;;;1.70;;
18100;SDS011;9177;49.156;8.142;2023-07-31T08:16:55;5.68;;;1.83;;
18100;SDS011;9177;49.156;8.142;2023-07-31T08:19:23;5.45;;;1.45;;
18100;SDS011;9177;49.156;8.142;2023-07-31T08:21:50;4.30;;;1.40;;
18100;SDS011;9177;49.156;8.142;2023-07-31T08:24:17;4.82;;;1.98;;
18100;SDS011;9177;49.156;8.142;2023-07-31T08:26:54;5.25;;;1.70;;
18100;SDS011;9177;49.156;8.142;2023-07-31T08:29:33;4.47;;;1.52;;
18100;SDS011;9177;49.156;8.142;2023-07-31T08:32:02;5.72;;;1.50;;
18100;SDS011;9177;49.156;8.142;2023-07-31T08:34:29;5.30;;;1.95;;
18100;SDS011;9177;49.156;8.142;2023-07-31T08:36:56;3.67;;;1.55;;
18100;SDS011;9177;49.156;8.142;2023-07-31T08:39:23;3.50;;;1.50;;
18100;SDS011;9177;49.156;8.142;2023-07-31T08:41:50;6.32;;;1.95;;
18100;SDS011;9177;49.156;8.142;2023-07-31T08:44:17;4.13;;;1.85;;
18100;SDS011;9177;49.156;8.142;2023-07-31T08:46:45;5.00;;;1.75;;
18100;SDS011;9177;49.156;8.142;2023-07-31T08:49:16;4.07;;;1.60;;
18100;SDS011;9177;49.156;8.142;2023-07-31T08:51:46;3.35;;;1.52;;
18100;SDS011;9177;49.156;8.142;2023-07-31T08:54:16;3.20;;;1.50;;
18100;SDS011;9177;49.156;8.142;2023-07-31T08:56:43;4.32;;;1.38;;
18100;SDS011;9177;49.156;8.142;2023-07-31T08:59:12;5.35;;;1.40;;
18100;SDS011;9177;49.156;8.142;2023-07-31T09:01:43;2.47;;;1.50;;
18100;SDS011;9177;49.156;8.142;2023-07-31T09:04:13;4.13;;;1.58;;
18100;SDS011;9177;49.156;8.142;2023-07-31T09:06:42;4.30;;;1.63;;
18100;SDS011;9177;49.156;8.142;2023-07-31T09:09:10;4.00;;;1.73;;
18100;SDS011;9177;49.156;8.142;2023-07-31T09:11:38;2.22;;;1.38;;
18100;SDS011;9177;49.156;8.142;2023-07-31T09:14:07;4.97;;;1.85;;
18100;SDS011;9177;49.156;8.142;2023-07-31T09:16:50;8.65;;;1.80;;
18100;SDS011;9177;49.156;8.142;2023-07-31T09:19:27;7.13;;;1.88;;
18100;SDS011;9177;49.156;8.142;2023-07-31T09:21:55;6.47;;;1.95;;
18100;SDS011;9177;49.156;8.142;2023-07-31T09:24:26;7.30;;;1.73;;
18100;SDS011;9177;49.156;8.142;2023-07-31T09:26:55;5.63;;;1.63;;
18100;SDS011;9177;49.156;8.142;2023-07-31T09:29:22;4.13;;;1.70;;
18100;SDS011;9177;49.156;8.142;2023-07-31T09:31:49;6.63;;;1.77;;
18100;SDS011;9177;49.156;8.142;2023-07-31T09:34:17;5.38;;;1.90;;
18100;SDS011;9177;49.156;8.142;2023-07-31T09:36:47;5.15;;;1.52;;
18100;SDS011;9177;49.156;8.142;2023-07-31T09:39:16;3.88;;;1.60;;
18100;SDS011;9177;49.156;8.142;2023-07-31T09:41:46;3.42;;;1.85;;
18100;SDS011;9177;49.156;8.142;2023-07-31T09:44:19;4.55;;;1.55;;
18100;SDS011;9177;49.156;8.142;2023-07-31T09:46:47;4.15;;;1.60;;
18100;SDS011;9177;49.156;8.142;2023-07-31T09:49:15;4.93;;;1.55;;
18100;SDS011;9177;49.156;8.142;2023-07-31T09:51:42;4.88;;;1.67;;
18100;SDS011;9177;49.156;8.142;2023-07-31T09:54:11;4.78;;;1.63;;
18100;SDS011;9177;49.156;8.142;2023-07-31T09:56:42;2.92;;;1.77;;
18100;SDS011;9177;49.156;8.142;2023-07-31T09:59:14;3.95;;;1.50;;
18100;SDS011;9177;49.156;8.142;2023-07-31T10:01:43;1.85;;;1.45;;
18100;SDS011;9177;49.156;8.142;2023-07-31T10:04:11;6.47;;;1.92;;
18100;SDS011;9177;49.156;8.142;2023-07-31T10:06:39;5.22;;;1.60;;
18100;SDS011;9177;49.156;8.142;2023-07-31T10:09:09;3.25;;;1.83;;
18100;SDS011;9177;49.156;8.142;2023-07-31T10:11:40;2.67;;;1.63;;
18100;SDS011;9177;49.156;8.142;2023-07-31T10:14:10;3.70;;;1.75;;
18100;SDS011;9177;49.156;8.142;2023-07-31T10:16:38;3.65;;;2.00;;
18100;SDS011;9177;49.156;8.142;2023-07-31T10:19:06;4.55;;;1.70;;
18100;SDS011;9177;49.156;8.142;2023-07-31T10:21:35;4.22;;;1.80;;
18100;SDS011;9177;49.156;8.142;2023-07-31T10:24:03;2.47;;;1.88;;
18100;SDS011;9177;49.156;8.142;2023-07-31T10:26:32;3.03;;;1.42;;
18100;SDS011;9177;49.156;8.142;2023-07-31T10:29:00;1.95;;;1.33;;
18100;SDS011;9177;49.156;8.142;2023-07-31T10:31:28;3.78;;;1.50;;
18100;SDS011;9177;49.156;8.142;2023-07-31T10:33:55;3.33;;;1.85;;
18100;SDS011;9177;49.156;8.142;2023-07-31T10:36:24;2.90;;;1.90;;
18100;SDS011;9177;49.156;8.142;2023-07-31T10:38:52;4.30;;;1.90;;
18100;SDS011;9177;49.156;8.142;2023-07-31T10:41:27;1.88;;;1.50;;
18100;SDS011;9177;49.156;8.142;2023-07-31T10:43:59;2.97;;;1.75;;
18100;SDS011;9177;49.156;8.142;2023-07-31T10:46:27;4.57;;;1.85;;
18100;SDS011;9177;49.156;8.142;2023-07-31T10:48:57;1.77;;;1.42;;
18100;SDS011;9177;49.156;8.142;2023-07-31T10:51:32;1.98;;;1.30;;
18100;SDS011;9177;49.156;8.142;2023-07-31T10:54:10;2.38;;;1.45;;
18100;SDS011;9177;49.156;8.142;2023-07-31T10:56:38;3.22;;;1.50;;
18100;SDS011;9177;49.156;8.142;2023-07-31T10:59:07;3.95;;;1.45;;
18100;SDS011;9177;49.156;8.142;2023-07-31T11:01:50;2.42;;;1.52;;
18100;SDS011;9177;49.156;8.142;2023-07-31T11:04:21;3.28;;;1.48;;
18100;SDS011;9177;49.156;8.142;2023-07-31T11:06:56;2.28;;;1.45;;
18100;SDS011;9177;49.156;8.142;2023-07-31T11:09:24;2.60;;;1.85;;
18100;SDS011;9177;49.156;8.142;2023-07-31T11:11:55;3.22;;;1.48;;
18100;SDS011;9177;49.156;8.142;2023-07-31T11:14:24;3.08;;;1.50;;
18100;SDS011;9177;49.156;8.142;2023-07-31T11:16:51;2.72;;;1.70;;
18100;SDS011;9177;49.156;8.142;2023-07-31T11:19:21;2.33;;;1.40;;
18100;SDS011;9177;49.156;8.142;2023-07-31T11:21:49;2.67;;;1.50;;
18100;SDS011;9177;49.156;8.142;2023-07-31T11:24:18;3.95;;;1.85;;
18100;SDS011;9177;49.156;8.142;2023-07-31T11:26:49;2.78;;;1.52;;
18100;SDS011;9177;49.156;8.142;2023-07-31T11:29:17;3.72;;;1.85;;
18100;SDS011;9177;49.156;8.142;2023-07-31T11:31:46;3.65;;;1.60;;
18100;SDS011;9177;49.156;8.142;2023-07-31T11:34:14;2.15;;;1.50;;
18100;SDS011;9177;49.156;8.142;2023-07-31T11:36:52;3.67;;;1.65;;
18100;SDS011;9177;49.156;8.142;2023-07-31T11:39:19;2.00;;;1.50;;
18100;SDS011;9177;49.156;8.142;2023-07-31T11:41:47;1.65;;;1.38;;
18100;SDS011;9177;49.156;8.142;2023-07-31T11:44:15;3.70;;;1.60;;
18100;SDS011;9177;49.156;8.142;2023-07-31T11:46:42;1.70;;;1.60;;
18100;SDS011;9177;49.156;8.142;2023-07-31T11:49:11;2.10;;;1.50;;
18100;SDS011;9177;49.156;8.142;2023-07-31T11:51:38;2.00;;;1.45;;
18100;SDS011;9177;49.156;8.142;2023-07-31T11:54:05;1.60;;;1.50;;
18100;SDS011;9177;49.156;8.142;2023-07-31T11:56:33;2.03;;;1.30;;
18100;SDS011;9177;49.156;8.142;2023-07-31T11:59:00;2.70;;;1.45;;
18100;SDS011;9177;49.156;8.142;2023-07-31T12:01:33;4.18;;;1.40;;
18100;SDS011;9177;49.156;8.142;2023-07-31T12:04:01;4.32;;;1.70;;
18100;SDS011;9177;49.156;8.142;2023-07-31T12:06:36;4.70;;;1.83;;
18100;SDS011;9177;49.156;8.142;2023-07-31T12:09:03;2.22;;;1.60;;
18100;SDS011;9177;49.156;8.142;2023-07-31T12:11:30;2.97;;;1.55;;
18100;SDS011;9177;49.156;8.142;2023-07-31T12:13:58;2.40;;;1.50;;
18100;SDS011;9177;49.156;8.142;2023-07-31T12:16:26;2.33;;;1.50;;
18100;SDS011;9177;49.156;8.142;2023-07-31T12:18:54;2.35;;;1.40;;
18100;SDS011;9177;49.156;8.142;2023-07-31T12:21:21;2.47;;;1.42;;
18100;SDS011;9177;49.156;8.142;2023-07-31T12:23:51;2.47;;;1.48;;
18100;SDS011;9177;49.156;8.142;2023-07-31T12:26:19;2.35;;;1.33;;
18100;SDS011;9177;49.156;8.142;2023-07-31T12:28:49;3.17;;;1.42;;
18100;SDS011;9177;49.156;8.142;2023-07-31T12:31:17;2.20;;;1.60;;
18100;SDS011;9177;49.156;8.142;2023-07-31T12:33:45;5.28;;;1.70;;
18100;SDS011;9177;49.156;8.142;2023-07-31T12:36:15;3.17;;;1.60;;
18100;SDS011;9177;49.156;8.142;2023-07-31T12:38:43;1.50;;;1.40;;
18100;SDS011;9177;49.156;8.142;2023-07-31T12:41:12;5.07;;;2.03;;
18100;SDS011;9177;49.156;8.142;2023-07-31T12:43:40;3.47;;;1.88;;
18100;SDS011;9177;49.156;8.142;2023-07-31T12:46:09;3.88;;;1.50;;
18100;SDS011;9177;49.156;8.142;2023-07-31T12:48:38;4.25;;;1.48;;
18100;SDS011;9177;49.156;8.142;2023-07-31T12:51:05;3.15;;;2.00;;
18100;SDS011;9177;49.156;8.142;2023-07-31T12:53:36;2.58;;;1.50;;
18100;SDS011;9177;49.156;8.142;2023-07-31T12:56:03;3.17;;;1.80;;
18100;SDS011;9177;49.156;8.142;2023-07-31T12:58:32;3.28;;;1.70;;
18100;SDS011;9177;49.156;8.142;2023-07-31T13:01:07;2.15;;;1.52;;
18100;SDS011;9177;49.156;8.142;2023-07-31T13:03:34;2.53;;;1.40;;
18100;SDS011;9177;49.156;8.142;2023-07-31T13:06:01;2.67;;;1.75;;
18100;SDS011;9177;49.156;8.142;2023-07-31T13:08:29;2.20;;;1.60;;
18100;SDS011;9177;49.156;8.142;2023-07-31T13:10:56;2.78;;;1.45;;
18100;SDS011;9177;49.156;8.142;2023-07-31T13:13:23;1.73;;;1.35;;
18100;SDS011;9177;49.156;8.142;2023-07-31T13:15:52;2.15;;;1.52;;
18100;SDS011;9177;49.156;8.142;2023-07-31T13:18:19;4.55;;;1.40;;
18100;SDS011;9177;49.156;8.142;2023-07-31T13:20:46;2.03;;;1.40;;
18100;SDS011;9177;49.156;8.142;2023-07-31T13:23:14;1.48;;;1.38;;
18100;SDS011;9177;49.156;8.142;2023-07-31T13:25:41;1.60;;;1.30;;
18100;SDS011;9177;49.156;8.142;2023-07-31T13:28:08;2.90;;;1.65;;
18100;SDS011;9177;49.156;8.142;2023-07-31T13:30:35;1.58;;;1.20;;
18100;SDS011;9177;49.156;8.142;2023-07-31T13:33:06;3.63;;;1.48;;
18100;SDS011;9177;49.156;8.142;2023-07-31T13:35:33;2.33;;;1.45;;
18100;SDS011;9177;49.156;8.142;2023-07-31T13:38:00;1.90;;;1.58;;
18100;SDS011;9177;49.156;8.142;2023-07-31T13:40:27;2.22;;;1.25;;
18100;SDS011;9177;49.156;8.142;2023-07-31T13:42:54;2.10;;;1.52;;
18100;SDS011;9177;49.156;8.142;2023-07-31T13:45:24;2.03;;;1.30;;
18100;SDS011;9177;49.156;8.142;2023-07-31T13:47:53;3.20;;;1.65;;
18100;SDS011;9177;49.156;8.142;2023-07-31T13:50:24;2.35;;;1.60;;
18100;SDS011;9177;49.156;8.142;2023-07-31T13:52:51;2.70;;;1.63;;
18100;SDS011;9177;49.156;8.142;2023-07-31T13:55:18;2.00;;;1.50;;
18100;SDS011;9177;49.156;8.142;2023-07-31T13:57:45;2.75;;;1.70;;
18100;SDS011;9177;49.156;8.142;2023-07-31T14:00:14;2.60;;;1.60;;
18100;SDS011;9177;49.156;8.142;2023-07-31T14:02:41;1.83;;;1.27;;
18100;SDS011;9177;49.156;8.142;2023-07-31T14:05:08;1.35;;;1.25;;
18100;SDS011;9177;49.156;8.142;2023-07-31T14:07:37;3.00;;;1.40;;
18100;SDS011;9177;49.156;8.142;2023-07-31T14:10:05;2.72;;;1.65;;
18100;SDS011;9177;49.156;8.142;2023-07-31T14:12:32;2.05;;;1.60;;
18100;SDS011;9177;49.156;8.142;2023-07-31T14:14:59;3.03;;;1.40;;
18100;SDS011;9177;49.156;8.142;2023-07-31T14:17:28;2.58;;;1.70;;
18100;SDS011;9177;49.156;8.142;2023-07-31T14:19:55;1.52;;;1.30;;
18100;SDS011;9177;49.156;8.142;2023-07-31T14:22:28;2.00;;;1.58;;
18100;SDS011;9177;49.156;8.142;2023-07-31T14:24:58;1.33;;;1.23;;
18100;SDS011;9177;49.156;8.142;2023-07-31T14:27:29;2.03;;;1.38;;
18100;SDS011;9177;49.156;8.142;2023-07-31T14:30:00;2.88;;;1.48;;
18100;SDS011;9177;49.156;8.142;2023-07-31T14:32:28;2.85;;;1.67;;
18100;SDS011;9177;49.156;8.142;2023-07-31T14:34:55;1.55;;;1.30;;
18100;SDS011;9177;49.156;8.142;2023-07-31T14:37:25;1.88;;;1.50;;
18100;SDS011;9177;49.156;8.142;2023-07-31T14:39:53;2.63;;;1.60;;
18100;SDS011;9177;49.156;8.142;2023-07-31T14:42:23;2.40;;;1.50;;
18100;SDS011;9177;49.156;8.142;2023-07-31T14:44:53;1.63;;;1.27;;
18100;SDS011;9177;49.156;8.142;2023-07-31T14:47:30;1.67;;;1.30;;
18100;SDS011;9177;49.156;8.142;2023-07-31T14:49:57;2.42;;;1.50;;
18100;SDS011;9177;49.156;8.142;2023-07-31T14:52:25;1.35;;;1.10;;
18100;SDS011;9177;49.156;8.142;2023-07-31T14:54:53;2.20;;;1.50;;
18100;SDS011;9177;49.156;8.142;2023-07-31T14:57:22;1.88;;;1.33;;
18100;SDS011;9177;49.156;8.142;2023-07-31T14:59:49;2.33;;;1.52;;
18100;SDS011;9177;49.156;8.142;2023-07-31T15:02:17;2.03;;;1.33;;
18100;SDS011;9177;49.156;8.142;2023-07-31T15:04:44;3.00;;;1.98;;
18100;SDS011;9177;49.156;8.142;2023-07-31T15:07:12;2.05;;;1.52;;